This is the latest recevied weather packets stored in our database for station/object BMCB-14. If no packets are shown the sender has not sent any weather packets the latest 10 day(s).
| Time | Temp. | Humidity | Pressure | Rain* | Wind** | Luminosity | Snow |
|---|---|---|---|---|---|---|---|
| 1777790445 | 13.89° C | 67% | 1013.6 hPa | 0 mm | - | 150 W/m² | - |
| 1777789847 | 13.89° C | 69% | 1013.6 hPa | 0 mm | - | 168 W/m² | - |
| 1777789246 | 13.89° C | 69% | 1013.6 hPa | 0 mm | - | 130 W/m² | - |
| 1777786246 | 13.33° C | 75% | 1013.7 hPa | 0 mm | - | 74 W/m² | - |
| 1777783246 | 13.33° C | 79% | 1013.8 hPa | 0 mm | - | 16 W/m² | - |
| 1777780243 | 13.33° C | 84% | 1014 hPa | 0 mm | - | 0 W/m² | - |
| 1777778445 | 12.78° C | 92% | 1014.1 hPa | 0 mm | - | 0 W/m² | - |
| 1777774845 | 13.33° C | 91% | 1014.3 hPa | 0 mm | - | 0 W/m² | - |
| 1777772446 | 13.89° C | 89% | 1014.6 hPa | 0 mm | - | 0 W/m² | - |
| 1777770647 | 14.44° C | 86% | 1014.7 hPa | 0 mm | - | 0 W/m² | - |
| 1777769446 | 13.33° C | 89% | 1015 hPa | 0 mm | - | 0 W/m² | - |
| 1777758645 | 14.44° C | 89% | 1015.7 hPa | 0 mm | - | 0 W/m² | - |
| 1777755048 | 13.89° C | 90% | 1015.9 hPa | 0 mm | - | 0 W/m² | - |
| 1777749050 | 14.44° C | 92% | 1016.2 hPa | 0 mm | - | 0 W/m² | - |
| 1777747848 | 15.56° C | 86% | 1016.2 hPa | 0 mm | - | 6 W/m² | - |
| 1777742449 | 17.78° C | 76% | 1016.4 hPa | 3.81 mm | - | 8 W/m² | - |
| 1777737048 | 22.78° C | 52% | 1015.8 hPa | 0 mm | - | 284 W/m² | - |
| 1777735248 | 22.78° C | 50% | 1016.1 hPa | 0 mm | - | 436 W/m² | - |
| 1777732846 | 22.78° C | 53% | 1017 hPa | 0 mm | - | 286 W/m² | - |
| 1777728645 | 22.78° C | 55% | 1018 hPa | 0 mm | - | 528 W/m² | - |
| 1777726244 | 21.67° C | 58% | 1018.6 hPa | 0 mm | - | 792 W/m² | - |
| 1777723845 | 21.11° C | 61% | 1019.1 hPa | 0 mm | - | 516 W/m² | - |
| 1777722644 | 20.56° C | 63% | 1019.4 hPa | 0 mm | - | 362 W/m² | - |
| 1777716649 | 20° C | 66% | 1020.3 hPa | 0 mm | - | 538 W/m² | - |
| 1777708848 | 16.67° C | 71% | 1021.2 hPa | 0 mm | - | 494 W/m² | - |
* Rain latest hour (hover to see other rain measurements)
** Current wind speed in m/s (hover to see current wind gust speed)